Time;durP1;ratioP1;P1;durP2;ratioP2;P2;SDS_P1;SDS_P2;PMS_P1;PMS_P2;Temp;Humidity;BMP_temperature;BMP_pressure;BME280_temperature;BME280_humidity;BME280_pressure;Samples;Min_cycle;Max_cycle;Signal;HPM_P1;HPM_P2
2023/02/20 00:01:03;;;;;;;21.55;12.75;;;22.40;99.90;;;;;;5030534;28;20052;-54
2023/02/20 00:03:30;;;;;;;20.35;11.70;;;22.40;99.90;;;;;;5031192;28;20026;-54
2023/02/20 00:05:56;;;;;;;20.63;11.98;;;22.40;99.90;;;;;;5030669;28;20022;-55
2023/02/20 00:08:22;;;;;;;19.75;12.45;;;22.30;99.90;;;;;;5031355;28;20021;-54
2023/02/20 00:10:48;;;;;;;19.95;13.20;;;22.30;99.90;;;;;;5030580;28;20045;-54
2023/02/20 00:13:14;;;;;;;17.88;11.32;;;22.30;99.90;;;;;;5030893;28;20030;-54
2023/02/20 00:15:40;;;;;;;19.05;12.73;;;22.30;99.90;;;;;;5008832;28;20033;-54
2023/02/20 00:18:06;;;;;;;20.45;13.52;;;22.30;99.90;;;;;;5029750;28;20154;-54
2023/02/20 00:20:32;;;;;;;23.52;13.25;;;22.30;99.90;;;;;;5029948;28;20033;-54
2023/02/20 00:22:58;;;;;;;23.42;14.27;;;22.20;99.90;;;;;;5031678;28;20025;-55
2023/02/20 00:25:24;;;;;;;23.80;14.23;;;22.20;99.90;;;;;;5013258;28;20108;-54
2023/02/20 00:27:50;;;;;;;20.92;13.98;;;22.20;99.90;;;;;;5032230;28;20030;-54
2023/02/20 00:30:22;;;;;;;21.88;14.10;;;22.20;99.90;;;;;;5035907;28;20084;-53
2023/02/20 00:32:49;;;;;;;21.23;14.00;;;22.20;99.90;;;;;;5035770;28;20076;-54
2023/02/20 00:35:16;;;;;;;22.08;13.75;;;22.20;99.90;;;;;;5018043;28;20025;-53
2023/02/20 00:37:42;;;;;;;22.00;14.77;;;22.20;99.90;;;;;;5035888;28;20029;-54
2023/02/20 00:40:09;;;;;;;20.85;14.02;;;22.20;99.90;;;;;;5035944;28;20036;-54
2023/02/20 00:42:35;;;;;;;22.20;14.50;;;22.20;99.90;;;;;;5035820;28;20037;-53
2023/02/20 00:45:01;;;;;;;21.38;14.68;;;22.10;99.90;;;;;;5035652;28;20071;-54
2023/02/20 00:47:27;;;;;;;21.23;14.70;;;22.10;99.90;;;;;;5035505;28;20097;-54
2023/02/20 00:49:52;;;;;;;19.77;14.85;;;22.10;99.90;;;;;;5035654;28;20029;-54
2023/02/20 00:52:18;;;;;;;24.52;15.18;;;22.10;99.90;;;;;;5017789;28;20026;-54
2023/02/20 00:54:44;;;;;;;21.08;14.90;;;22.10;99.90;;;;;;5017636;28;20033;-55
2023/02/20 00:57:10;;;;;;;22.05;14.82;;;22.10;99.90;;;;;;5035558;28;20021;-53
2023/02/20 00:59:35;;;;;;;22.33;14.55;;;22.10;99.90;;;;;;5035983;28;20108;-54
2023/02/20 01:02:01;;;;;;;22.00;13.88;;;22.10;99.90;;;;;;5035268;28;20449;-54
2023/02/20 01:04:27;;;;;;;21.88;13.80;;;22.10;99.90;;;;;;5035393;28;20017;-53
2023/02/20 01:06:53;;;;;;;24.38;15.80;;;22.10;99.90;;;;;;5035385;28;20025;-53
2023/02/20 01:09:19;;;;;;;22.50;14.73;;;22.10;99.90;;;;;;5035288;28;20079;-54
2023/02/20 01:11:45;;;;;;;20.60;14.48;;;22.00;99.90;;;;;;5017604;28;20025;-54
2023/02/20 01:14:12;;;;;;;21.85;14.50;;;22.00;99.90;;;;;;5017537;28;20029;-54
2023/02/20 01:16:44;;;;;;;24.55;15.60;;;22.00;99.90;;;;;;5035451;28;20025;-55
2023/02/20 01:19:10;;;;;;;22.42;13.93;;;22.00;99.90;;;;;;5035183;28;20507;-55
2023/02/20 01:21:36;;;;;;;22.55;14.63;;;22.00;99.90;;;;;;5001078;28;20395;-55
2023/02/20 01:24:02;;;;;;;20.40;13.65;;;22.00;99.90;;;;;;5034953;28;20092;-54
2023/02/20 01:26:28;;;;;;;22.65;14.75;;;22.00;99.90;;;;;;5035008;28;20029;-55
2023/02/20 01:28:54;;;;;;;19.92;13.65;;;22.00;99.90;;;;;;5034781;28;20472;-54
2023/02/20 01:31:20;;;;;;;25.35;15.45;;;22.00;99.90;;;;;;5035152;28;20026;-54
2023/02/20 01:33:46;;;;;;;23.13;15.15;;;22.00;99.90;;;;;;5034825;28;20049;-54
2023/02/20 01:36:12;;;;;;;20.08;13.80;;;22.00;99.90;;;;;;5035207;28;20044;-54
2023/02/20 01:38:39;;;;;;;23.10;14.57;;;22.00;99.90;;;;;;5034729;28;20044;-54
2023/02/20 01:41:06;;;;;;;;;;;22.00;99.90;;;;;;5035055;28;20041;-52
2023/02/20 01:43:32;;;;;;;20.90;14.48;;;21.90;99.90;;;;;;5016944;28;19971;-52
2023/02/20 01:46:22;;;;;;;20.63;14.60;;;21.90;99.90;;;;;;5034408;28;20042;-51
2023/02/20 01:48:49;;;;;;;22.63;15.50;;;21.90;99.90;;;;;;5034768;28;20440;-54
2023/02/20 01:51:15;;;;;;;23.83;16.08;;;21.90;99.90;;;;;;5034584;28;20029;-54
2023/02/20 01:53:41;;;;;;;22.77;14.23;;;21.90;99.90;;;;;;5034826;28;20036;-54
2023/02/20 01:56:09;;;;;;;18.75;13.25;;;21.90;99.90;;;;;;5034378;28;20018;-51
2023/02/20 01:58:48;;;;;;;21.83;14.75;;;21.90;99.90;;;;;;5034177;28;20040;-52
2023/02/20 02:01:13;;;;;;;22.75;14.45;;;21.90;99.90;;;;;;5034615;28;20136;-52
2023/02/20 02:03:43;;;;;;;21.30;13.77;;;21.90;99.90;;;;;;5034385;28;20480;-51
2023/02/20 02:06:12;;;;;;;21.38;14.38;;;21.80;99.90;;;;;;5034383;28;20025;-51
2023/02/20 02:08:40;;;;;;;25.90;15.45;;;21.80;99.90;;;;;;5034049;28;20026;-51
2023/02/20 02:11:12;;;;;;;23.95;14.98;;;21.80;99.90;;;;;;5016128;28;20033;-52
2023/02/20 02:13:38;;;;;;;21.35;15.20;;;21.80;99.90;;;;;;5034051;28;20068;-52
2023/02/20 02:16:26;;;;;;;21.65;14.95;;;21.80;99.90;;;;;;5033950;28;20033;-52
2023/02/20 02:18:57;;;;;;;;;;;21.80;99.90;;;;;;5034519;28;20074;-51
2023/02/20 02:21:52;;;;;;;19.75;13.43;;;21.80;99.90;;;;;;5033844;28;19913;-52
2023/02/20 02:24:38;;;;;;;19.95;14.43;;;21.80;99.90;;;;;;5022910;28;20388;-53
2023/02/20 02:27:07;;;;;;;20.02;14.05;;;21.80;99.90;;;;;;5033751;28;20034;-53
2023/02/20 02:29:41;;;;;;;21.65;14.75;;;21.70;99.90;;;;;;5033690;28;20499;-54
2023/02/20 02:32:18;;;;;;;21.38;14.43;;;21.80;99.90;;;;;;5015825;28;20035;-53
2023/02/20 02:35:02;;;;;;;;;;;21.70;99.90;;;;;;5034140;28;20026;-54
2023/02/20 02:37:47;;;;;;;22.35;13.93;;;21.70;99.90;;;;;;5033684;28;19906;-52
2023/02/20 02:40:29;;;;;;;22.38;14.23;;;21.70;99.90;;;;;;5033768;28;20026;-53
2023/02/20 02:43:20;;;;;;;19.77;13.68;;;21.70;99.90;;;;;;5033559;28;20026;-53
2023/02/20 02:46:02;;;;;;;23.45;14.55;;;21.70;99.90;;;;;;5033444;28;20038;-53
2023/02/20 02:49:01;;;;;;;17.98;12.90;;;21.70;99.90;;;;;;5033441;28;20464;-54
2023/02/20 02:51:33;;;;;;;19.70;12.90;;;21.70;99.90;;;;;;5029714;28;20441;-54
2023/02/20 02:54:06;;;;;;;21.73;14.48;;;21.70;99.90;;;;;;5033355;28;20108;-53
2023/02/20 02:56:40;;;;;;;18.98;12.63;;;21.60;99.90;;;;;;5019390;28;20029;-53
2023/02/20 02:59:09;;;;;;;20.58;13.43;;;21.70;99.90;;;;;;5022917;28;20044;-53
2023/02/20 03:01:43;;;;;;;20.42;12.88;;;21.70;99.90;;;;;;5015599;28;20045;-53
2023/02/20 03:04:11;;;;;;;23.75;13.90;;;21.70;99.90;;;;;;5024070;28;20101;-50
2023/02/20 03:06:40;;;;;;;22.63;13.40;;;21.70;99.90;;;;;;5007253;28;20022;-50
2023/02/20 03:09:12;;;;;;;19.60;12.98;;;21.60;99.90;;;;;;5024161;28;20539;-49
2023/02/20 03:11:39;;;;;;;19.45;12.85;;;21.60;99.90;;;;;;5015174;28;20034;-51
2023/02/20 03:17:29;;;;;;;21.45;13.95;;;21.60;99.90;;;;;;5025368;28;20511;-51
2023/02/20 03:20:01;;;;;;;28.05;15.00;;;21.60;99.90;;;;;;5014692;28;20354;-50
2023/02/20 03:22:46;;;;;;;20.45;13.10;;;21.60;99.90;;;;;;5024384;28;20438;-50
2023/02/20 03:25:21;;;;;;;17.38;12.05;;;21.60;99.90;;;;;;5015803;28;20057;-50
2023/02/20 03:28:13;;;;;;;22.25;12.15;;;21.60;99.90;;;;;;5000391;28;20031;-50
2023/02/20 03:30:50;;;;;;;19.05;12.93;;;21.60;99.90;;;;;;5010603;28;20038;-51
2023/02/20 03:44:50;;;;;;;;;;;21.60;99.90;;;;;;5027164;28;20431;-52
2023/02/20 03:47:19;;;;;;;25.00;12.88;;;21.60;99.90;;;;;;5018018;28;19910;-52
2023/02/20 03:52:30;;;;;;;16.20;11.07;;;21.60;99.90;;;;;;5018198;28;20064;-52
2023/02/20 03:54:55;;;;;;;18.38;11.65;;;21.60;99.90;;;;;;5020439;28;20065;-53
2023/02/20 03:57:26;;;;;;;19.50;11.07;;;21.60;99.90;;;;;;5017821;28;20034;-52
2023/02/20 04:00:21;;;;;;;18.23;11.20;;;21.60;99.90;;;;;;5010788;28;20021;-53
2023/02/20 04:02:53;;;;;;;16.90;11.07;;;21.60;99.90;;;;;;5015135;28;20411;-54
2023/02/20 04:05:28;;;;;;;18.92;10.80;;;21.60;99.90;;;;;;5030273;28;20021;-53
2023/02/20 04:08:00;;;;;;;16.42;10.73;;;21.50;99.90;;;;;;5030611;28;20033;-53
2023/02/20 04:10:33;;;;;;;19.85;10.70;;;21.50;99.90;;;;;;5025391;28;20046;-53
2023/02/20 04:13:01;;;;;;;17.08;10.55;;;21.60;99.90;;;;;;5012459;28;20026;-53
2023/02/20 04:15:27;;;;;;;18.10;10.93;;;21.50;99.90;;;;;;5014421;28;20017;-53
2023/02/20 04:18:09;;;;;;;17.00;11.10;;;21.50;99.90;;;;;;5032051;28;20484;-53
2023/02/20 04:20:35;;;;;;;15.57;10.07;;;21.50;99.90;;;;;;5023299;28;20065;-55
2023/02/20 04:23:15;;;;;;;18.58;11.30;;;21.50;99.90;;;;;;5012281;28;20527;-55
2023/02/20 04:26:08;;;;;;;15.35;10.27;;;21.50;99.90;;;;;;5020657;28;20070;-54
2023/02/20 04:28:34;;;;;;;13.52;9.98;;;21.50;99.90;;;;;;5010344;28;20037;-54
2023/02/20 04:30:59;;;;;;;14.65;9.65;;;21.50;99.90;;;;;;5021257;28;20025;-54
2023/02/20 04:33:25;;;;;;;15.65;10.18;;;21.50;99.90;;;;;;5012051;28;20531;-54
2023/02/20 04:35:52;;;;;;;22.80;11.60;;;21.40;99.90;;;;;;4994236;28;20018;-54
2023/02/20 04:38:18;;;;;;;18.70;10.23;;;21.50;99.90;;;;;;5027948;28;20033;-54
2023/02/20 04:40:44;;;;;;;16.85;9.88;;;21.40;99.90;;;;;;5031460;28;20041;-54
2023/02/20 04:43:10;;;;;;;14.40;9.52;;;21.40;99.90;;;;;;5018138;28;20184;-54
2023/02/20 04:45:36;;;;;;;15.27;10.45;;;21.40;99.90;;;;;;5031569;28;20029;-54
2023/02/20 04:48:02;;;;;;;16.15;9.65;;;21.40;99.90;;;;;;5031401;28;20156;-55
2023/02/20 04:50:31;;;;;;;14.00;8.18;;;21.40;99.90;;;;;;5024872;28;20049;-54
2023/02/20 04:52:57;;;;;;;15.18;9.25;;;21.40;99.90;;;;;;4994385;28;20349;-54
2023/02/20 04:55:23;;;;;;;13.90;9.10;;;21.40;99.90;;;;;;5011756;28;20024;-54
2023/02/20 04:57:50;;;;;;;14.43;9.15;;;21.40;99.90;;;;;;5023873;28;20108;-54
2023/02/20 05:00:20;;;;;;;12.88;9.00;;;21.40;99.90;;;;;;5032044;28;20491;-54
2023/02/20 05:02:47;;;;;;;13.60;8.73;;;21.30;99.90;;;;;;5020513;28;20034;-54
2023/02/20 05:05:22;;;;;;;15.50;9.68;;;21.40;99.90;;;;;;5029340;28;20491;-54
2023/02/20 05:07:52;;;;;;;16.20;9.00;;;21.30;99.90;;;;;;5031648;28;20033;-53
2023/02/20 05:10:21;;;;;;;14.40;9.38;;;21.30;99.90;;;;;;5031558;28;20017;-54
2023/02/20 05:12:46;;;;;;;14.05;8.82;;;21.30;99.90;;;;;;5031423;28;20025;-54
2023/02/20 05:15:13;;;;;;;15.20;9.13;;;21.30;99.90;;;;;;5033420;28;20353;-54
2023/02/20 05:17:39;;;;;;;16.23;8.77;;;21.30;99.90;;;;;;5034815;28;20025;-53
2023/02/20 05:20:06;;;;;;;17.08;8.75;;;21.30;99.90;;;;;;5032416;28;20060;-54
2023/02/20 05:22:32;;;;;;;14.98;8.32;;;21.30;99.90;;;;;;5023787;28;20045;-54
2023/02/20 05:24:58;;;;;;;14.07;8.98;;;21.30;99.90;;;;;;5034707;28;20072;-54
2023/02/20 05:27:24;;;;;;;12.90;8.40;;;21.30;99.90;;;;;;5034860;28;20093;-54
2023/02/20 05:29:53;;;;;;;10.95;7.97;;;21.30;99.90;;;;;;5034654;28;20030;-54
2023/02/20 05:32:21;;;;;;;15.13;8.60;;;21.30;99.90;;;;;;5034915;28;20025;-54
2023/02/20 05:34:46;;;;;;;;;;;21.30;99.90;;;;;;5035040;28;20414;-54
2023/02/20 05:37:14;;;;;;;14.05;8.55;;;21.30;99.90;;;;;;5027492;28;19996;-53
2023/02/20 05:39:40;;;;;;;12.10;8.25;;;21.30;99.90;;;;;;5014668;28;20037;-54
2023/02/20 05:42:07;;;;;;;17.70;8.63;;;21.30;99.90;;;;;;4997095;28;20034;-54
2023/02/20 05:44:34;;;;;;;13.83;8.53;;;21.30;99.90;;;;;;5027215;28;20036;-54
2023/02/20 05:47:00;;;;;;;13.48;7.70;;;21.20;99.90;;;;;;5029849;28;20030;-54
2023/02/20 05:49:26;;;;;;;12.77;7.85;;;21.20;99.90;;;;;;5025678;28;20037;-54
2023/02/20 05:51:54;;;;;;;13.63;8.32;;;21.20;99.90;;;;;;5029710;28;20373;-53
2023/02/20 05:54:20;;;;;;;11.25;8.02;;;21.20;99.90;;;;;;5014737;28;20038;-55
2023/02/20 05:56:47;;;;;;;11.32;7.20;;;21.20;99.90;;;;;;5017831;28;20075;-55
2023/02/20 05:59:16;;;;;;;12.40;8.07;;;21.20;99.90;;;;;;5033944;28;20029;-55
2023/02/20 06:01:41;;;;;;;11.20;8.18;;;21.20;99.90;;;;;;5016196;28;20448;-56
2023/02/20 06:04:07;;;;;;;12.05;7.72;;;21.20;99.90;;;;;;5034248;28;20056;-55
2023/02/20 06:06:38;;;;;;;16.48;7.53;;;21.20;99.90;;;;;;5018575;28;20049;-53
2023/02/20 06:09:06;;;;;;;11.00;6.72;;;21.20;99.90;;;;;;5034049;28;20480;-54
2023/02/20 06:11:33;;;;;;;12.68;7.57;;;21.20;99.90;;;;;;5019084;28;20375;-54
2023/02/20 06:13:59;;;;;;;13.70;7.20;;;21.20;99.90;;;;;;5020814;28;20072;-54
2023/02/20 06:16:27;;;;;;;12.07;7.45;;;21.10;99.90;;;;;;5020169;28;20026;-53
2023/02/20 06:18:53;;;;;;;12.25;7.85;;;21.20;99.90;;;;;;5019342;28;20028;-54
2023/02/20 06:21:21;;;;;;;13.93;7.22;;;21.10;99.90;;;;;;5021923;28;20515;-54
2023/02/20 06:23:48;;;;;;;15.02;8.02;;;21.10;99.90;;;;;;5015620;28;20017;-54
2023/02/20 06:26:15;;;;;;;10.40;7.05;;;21.10;99.90;;;;;;5032723;28;20037;-54
2023/02/20 06:28:41;;;;;;;11.90;7.53;;;21.20;99.90;;;;;;5033289;28;20068;-55
2023/02/20 06:31:08;;;;;;;10.65;6.22;;;21.10;99.90;;;;;;5033579;28;20379;-54
2023/02/20 06:33:34;;;;;;;10.63;7.03;;;21.10;99.90;;;;;;5013083;28;20030;-54
2023/02/20 06:36:00;;;;;;;13.68;7.07;;;21.10;99.90;;;;;;5013430;28;20026;-54
2023/02/20 06:38:26;;;;;;;15.40;7.18;;;21.10;99.90;;;;;;5028491;28;20029;-54
2023/02/20 06:40:52;;;;;;;12.07;7.13;;;21.10;99.90;;;;;;5004010;28;20434;-55
2023/02/20 06:43:18;;;;;;;12.57;7.18;;;21.10;99.90;;;;;;5032787;28;20025;-54
2023/02/20 06:45:44;;;;;;;13.25;8.55;;;21.10;99.90;;;;;;5033167;28;20029;-57
2023/02/20 06:48:13;;;;;;;11.85;7.30;;;21.10;99.90;;;;;;5033084;28;20029;-57
2023/02/20 06:50:39;;;;;;;11.30;7.43;;;21.10;99.90;;;;;;5032819;28;20048;-55
2023/02/20 06:53:05;;;;;;;11.32;7.25;;;21.00;99.90;;;;;;5014830;28;20022;-54
2023/02/20 06:55:31;;;;;;;12.32;7.93;;;21.10;99.90;;;;;;5013502;28;20096;-54
2023/02/20 06:57:57;;;;;;;12.75;8.55;;;21.00;99.90;;;;;;5012844;28;20105;-53
2023/02/20 07:00:24;;;;;;;15.38;9.00;;;21.00;99.90;;;;;;5032658;28;20061;-53
2023/02/20 07:02:49;;;;;;;12.90;8.30;;;21.10;99.90;;;;;;5033057;28;20100;-54
2023/02/20 07:05:15;;;;;;;13.65;8.57;;;21.10;99.90;;;;;;5032712;28;20474;-56
2023/02/20 07:07:41;;;;;;;13.25;8.13;;;21.10;99.90;;;;;;5032521;28;20029;-54
2023/02/20 07:10:07;;;;;;;15.93;9.35;;;21.00;99.90;;;;;;5032608;28;20028;-55
2023/02/20 07:12:37;;;;;;;15.88;10.32;;;21.00;99.90;;;;;;5032544;28;20030;-56
2023/02/20 07:15:05;;;;;;;17.98;9.90;;;21.00;99.90;;;;;;5015135;28;21131;-57
2023/02/20 07:17:30;;;;;;;14.75;9.52;;;21.00;99.90;;;;;;5032532;28;20036;-56
2023/02/20 07:19:56;;;;;;;15.05;10.15;;;21.00;99.90;;;;;;5031008;28;20030;-56
2023/02/20 07:22:22;;;;;;;17.02;10.75;;;21.00;99.90;;;;;;5020979;28;20032;-55
2023/02/20 07:24:52;;;;;;;16.90;10.73;;;21.00;99.90;;;;;;5014667;28;20017;-56
2023/02/20 07:27:18;;;;;;;18.02;10.63;;;21.00;99.90;;;;;;5032384;28;20502;-56
2023/02/20 07:29:46;;;;;;;16.73;10.40;;;21.00;99.90;;;;;;5014497;28;20059;-56
2023/02/20 07:32:13;;;;;;;18.73;11.95;;;21.00;99.90;;;;;;5032526;28;20036;-56
2023/02/20 07:34:39;;;;;;;18.23;11.88;;;21.00;99.90;;;;;;5032659;28;20064;-56
2023/02/20 07:37:05;;;;;;;21.50;11.88;;;21.00;99.90;;;;;;5031843;28;20156;-56
2023/02/20 07:39:30;;;;;;;21.60;12.38;;;21.00;99.90;;;;;;5014758;28;20570;-56
2023/02/20 07:41:56;;;;;;;22.23;12.13;;;21.00;99.90;;;;;;5014546;28;20041;-56
2023/02/20 07:44:22;;;;;;;20.88;12.82;;;21.00;99.90;;;;;;5023392;28;20379;-56
2023/02/20 07:46:47;;;;;;;19.80;12.73;;;21.00;99.90;;;;;;5014279;28;20075;-56
2023/02/20 07:49:13;;;;;;;22.15;13.40;;;21.00;99.90;;;;;;5004747;28;20025;-54
2023/02/20 07:51:39;;;;;;;20.80;14.13;;;21.00;99.90;;;;;;4994698;28;20036;-54
2023/02/20 07:54:05;;;;;;;21.70;13.60;;;21.00;99.90;;;;;;5012393;28;20101;-54
2023/02/20 07:56:31;;;;;;;22.05;14.45;;;21.00;99.90;;;;;;5013862;28;20018;-57
2023/02/20 07:58:57;;;;;;;21.38;15.32;;;21.00;99.90;;;;;;5031944;28;20195;-57
2023/02/20 08:01:22;;;;;;;21.48;13.88;;;21.00;99.90;;;;;;5018408;28;20100;-56
2023/02/20 08:03:48;;;;;;;24.67;15.65;;;21.00;99.90;;;;;;5001537;28;20284;-57
2023/02/20 08:06:18;;;;;;;19.35;14.15;;;21.00;99.90;;;;;;5031685;28;20023;-56
2023/02/20 08:08:51;;;;;;;23.08;14.90;;;21.00;99.90;;;;;;4995171;28;20017;-57
2023/02/20 08:11:18;;;;;;;22.90;15.38;;;21.00;99.90;;;;;;5024943;28;20044;-56
2023/02/20 08:13:44;;;;;;;22.07;14.70;;;21.00;99.90;;;;;;5018539;28;20021;-55
2023/02/20 08:16:10;;;;;;;23.75;15.40;;;21.00;99.90;;;;;;5031782;28;20314;-55
2023/02/20 08:18:36;;;;;;;27.77;16.10;;;21.00;99.90;;;;;;5031650;28;20020;-55
2023/02/20 08:21:02;;;;;;;23.58;15.68;;;21.00;99.90;;;;;;5021360;28;20030;-56
2023/02/20 08:23:28;;;;;;;22.30;15.10;;;21.00;99.90;;;;;;5011480;28;20112;-56
2023/02/20 08:25:54;;;;;;;21.88;15.50;;;21.00;99.90;;;;;;5031718;28;20104;-54
2023/02/20 08:28:20;;;;;;;23.63;16.38;;;21.00;99.90;;;;;;5018080;28;20026;-56
2023/02/20 08:30:46;;;;;;;21.65;14.63;;;21.00;99.90;;;;;;5022933;28;20029;-55
2023/02/20 08:33:12;;;;;;;24.85;16.63;;;21.00;99.90;;;;;;5025809;28;20025;-53
2023/02/20 08:35:38;;;;;;;23.65;15.85;;;21.00;99.90;;;;;;5031404;28;20562;-53
2023/02/20 08:38:06;;;;;;;22.92;15.18;;;21.00;99.90;;;;;;5031492;28;20104;-56
2023/02/20 08:40:32;;;;;;;24.65;15.98;;;21.00;99.90;;;;;;5018341;28;20096;-55
2023/02/20 08:42:59;;;;;;;25.77;17.17;;;21.00;99.90;;;;;;5000928;28;20018;-56
2023/02/20 08:45:25;;;;;;;24.88;16.40;;;21.00;99.90;;;;;;5008966;28;20045;-53
2023/02/20 08:47:56;;;;;;;24.30;17.23;;;21.10;99.90;;;;;;5023042;28;20076;-52
2023/02/20 08:50:22;;;;;;;25.63;16.75;;;21.10;99.90;;;;;;5015055;28;20024;-53
2023/02/20 08:52:48;;;;;;;25.58;17.00;;;21.10;99.90;;;;;;5026110;28;20029;-55
2023/02/20 08:55:14;;;;;;;27.05;17.20;;;21.10;99.90;;;;;;5000760;28;20025;-54
2023/02/20 08:57:43;;;;;;;23.25;16.08;;;21.10;99.90;;;;;;5015473;28;20077;-55
2023/02/20 09:00:10;;;;;;;25.88;16.48;;;21.10;99.90;;;;;;5015127;28;20157;-54
2023/02/20 09:02:36;;;;;;;26.83;16.92;;;21.10;99.90;;;;;;5025014;28;20029;-53
2023/02/20 09:05:03;;;;;;;25.08;17.33;;;21.10;99.90;;;;;;5034879;28;20373;-56
2023/02/20 09:07:29;;;;;;;25.20;15.43;;;21.20;99.90;;;;;;5035025;28;20022;-55
2023/02/20 09:09:54;;;;;;;27.00;16.02;;;21.20;99.90;;;;;;5034837;28;20040;-55
2023/02/20 09:12:20;;;;;;;23.70;16.27;;;21.10;99.90;;;;;;5035145;28;20063;-55
2023/02/20 09:14:46;;;;;;;21.65;15.40;;;21.20;99.90;;;;;;5003701;28;20117;-54
2023/02/20 09:17:12;;;;;;;23.02;14.85;;;21.20;99.90;;;;;;5034779;28;20029;-55
2023/02/20 09:19:38;;;;;;;22.20;15.40;;;21.20;99.90;;;;;;5016938;28;20021;-56
2023/02/20 09:22:04;;;;;;;27.80;16.52;;;21.20;99.90;;;;;;5021228;28;20048;-57
2023/02/20 09:24:33;;;;;;;23.83;15.30;;;21.30;99.90;;;;;;5034989;28;20515;-55
2023/02/20 09:27:03;;;;;;;21.45;15.13;;;21.30;99.90;;;;;;5021616;28;20074;-56
2023/02/20 09:29:29;;;;;;;21.17;14.48;;;21.30;99.90;;;;;;5034681;28;20021;-55
2023/02/20 09:31:55;;;;;;;23.70;16.33;;;21.30;99.90;;;;;;5034424;28;20025;-56
2023/02/20 09:34:21;;;;;;;23.25;15.10;;;21.30;99.90;;;;;;5034573;28;20108;-55
2023/02/20 09:36:47;;;;;;;22.95;14.55;;;21.30;99.90;;;;;;5034297;28;20105;-55
2023/02/20 09:39:16;;;;;;;23.25;15.00;;;21.40;99.90;;;;;;5016829;28;20068;-56
2023/02/20 09:42:13;;;;;;;22.95;15.25;;;21.40;99.90;;;;;;5034332;28;20029;-55
2023/02/20 09:44:45;;;;;;;22.35;14.70;;;21.40;99.90;;;;;;5034084;28;20076;-55
2023/02/20 09:47:35;;;;;;;24.40;14.90;;;21.50;99.90;;;;;;5034289;28;20475;-56
2023/02/20 09:50:05;;;;;;;22.17;14.15;;;21.40;99.90;;;;;;5034564;28;20380;-56
2023/02/20 09:52:36;;;;;;;23.92;14.50;;;21.50;99.90;;;;;;5034263;28;20128;-55
2023/02/20 09:55:09;;;;;;;23.52;15.52;;;21.50;99.90;;;;;;5034133;28;20021;-56
2023/02/20 09:57:36;;;;;;;21.77;14.55;;;21.50;99.90;;;;;;5034103;28;20039;-55
2023/02/20 10:00:08;;;;;;;23.48;15.00;;;21.60;99.90;;;;;;5016120;28;20133;-56
2023/02/20 10:02:46;;;;;;;24.33;15.95;;;21.60;99.90;;;;;;5021201;28;20037;-56
2023/02/20 10:05:20;;;;;;;20.40;13.43;;;21.60;99.90;;;;;;5033807;28;20041;-56
2023/02/20 10:07:48;;;;;;;22.35;14.85;;;21.60;99.90;;;;;;5033910;28;20029;-56
2023/02/20 10:10:30;;;;;;;19.83;13.45;;;21.60;99.90;;;;;;5030787;28;20097;-55
2023/02/20 10:13:24;;;;;;;25.35;14.73;;;21.70;99.90;;;;;;5013856;28;20026;-55
2023/02/20 10:16:17;;;;;;;23.25;15.88;;;21.70;99.90;;;;;;5023198;28;20028;-56
2023/02/20 10:19:18;;;;;;;26.80;14.95;;;21.70;99.90;;;;;;5015904;28;20026;-56
2023/02/20 10:21:58;;;;;;;21.75;13.63;;;21.80;99.90;;;;;;4991912;28;20042;-56
2023/02/20 10:24:46;;;;;;;24.27;14.82;;;21.80;99.90;;;;;;5021853;28;20026;-56
2023/02/20 10:27:36;;;;;;;20.10;14.30;;;21.80;99.90;;;;;;5020069;28;20009;-56
2023/02/20 10:30:04;;;;;;;17.55;12.50;;;21.80;99.90;;;;;;5033615;28;20060;-56
2023/02/20 10:32:56;;;;;;;21.83;13.68;;;21.90;99.90;;;;;;5033317;28;20116;-56
2023/02/20 10:35:29;;;;;;;21.40;13.30;;;21.90;99.90;;;;;;5016100;28;20483;-56
2023/02/20 10:37:58;;;;;;;19.23;12.68;;;21.90;99.90;;;;;;5033429;28;20036;-56
2023/02/20 10:40:32;;;;;;;19.48;13.02;;;22.00;99.90;;;;;;5030114;28;20361;-56
2023/02/20 10:43:18;;;;;;;19.40;13.02;;;22.00;99.90;;;;;;5024003;28;20340;-56
2023/02/20 10:46:07;;;;;;;22.50;12.97;;;22.00;99.90;;;;;;5026135;28;20014;-55
2023/02/20 10:48:34;;;;;;;17.40;12.40;;;22.00;99.90;;;;;;5015424;28;20022;-55
2023/02/20 10:51:41;;;;;;;20.05;12.20;;;22.00;99.90;;;;;;5015245;28;20056;-55
2023/02/20 10:54:15;;;;;;;17.73;11.95;;;22.00;99.90;;;;;;5012191;28;20492;-55
2023/02/20 10:56:49;;;;;;;21.17;12.60;;;22.10;99.90;;;;;;5026451;28;20017;-56
2023/02/20 10:59:37;;;;;;;22.13;12.75;;;22.10;99.90;;;;;;5013266;28;20026;-56
2023/02/20 11:02:06;;;;;;;19.63;12.98;;;22.10;99.90;;;;;;5016313;28;20045;-55
2023/02/20 11:04:36;;;;;;;20.08;12.75;;;22.20;99.90;;;;;;5022678;28;20026;-55
2023/02/20 11:07:08;;;;;;;18.30;12.13;;;22.10;99.90;;;;;;5030494;28;20352;-56
2023/02/20 11:09:33;;;;;;;18.85;11.07;;;22.20;99.90;;;;;;5033040;28;20021;-55
2023/02/20 11:12:00;;;;;;;16.88;11.85;;;22.20;99.90;;;;;;5015536;28;20033;-57
2023/02/20 11:14:31;;;;;;;16.33;11.68;;;22.20;99.90;;;;;;5022982;28;20029;-56
2023/02/20 11:17:16;;;;;;;21.75;11.98;;;22.20;99.90;;;;;;5029878;28;20040;-56
2023/02/20 11:19:44;;;;;;;15.27;11.00;;;22.20;99.90;;;;;;5024615;28;20056;-55
2023/02/20 11:22:11;;;;;;;17.55;11.13;;;22.30;99.90;;;;;;5032093;28;20422;-56
2023/02/20 11:24:39;;;;;;;17.80;11.13;;;22.30;99.90;;;;;;5021612;28;20057;-56
2023/02/20 11:27:08;;;;;;;15.98;11.75;;;22.40;99.90;;;;;;5030885;28;20025;-56
2023/02/20 11:29:41;;;;;;;19.85;11.32;;;22.40;99.90;;;;;;5032538;28;20028;-55
2023/02/20 11:32:39;;;;;;;17.80;11.15;;;22.40;99.90;;;;;;5001746;28;20116;-57
2023/02/20 11:35:17;;;;;;;14.45;10.18;;;22.40;99.90;;;;;;5031860;28;20479;-57
2023/02/20 11:37:45;;;;;;;16.20;11.05;;;22.50;99.90;;;;;;5012370;28;20029;-57
2023/02/20 11:40:27;;;;;;;16.55;11.35;;;22.50;99.90;;;;;;5014862;28;20109;-58
2023/02/20 11:42:53;;;;;;;21.58;12.30;;;22.50;99.90;;;;;;5022683;28;20022;-56
2023/02/20 11:45:27;;;;;;;20.90;11.45;;;22.50;99.90;;;;;;5012200;28;20178;-56
2023/02/20 11:48:19;;;;;;;15.35;10.70;;;22.60;99.90;;;;;;5023417;28;20025;-55
2023/02/20 11:50:50;;;;;;;15.65;10.88;;;22.60;99.90;;;;;;5022523;28;20113;-56
2023/02/20 11:53:28;;;;;;;19.27;11.45;;;22.60;99.90;;;;;;5026106;28;20025;-56
2023/02/20 11:56:18;;;;;;;18.45;11.40;;;22.70;99.90;;;;;;5032089;28;20021;-55
2023/02/20 11:58:46;;;;;;;17.75;11.52;;;22.70;99.90;;;;;;5031707;28;20530;-56
2023/02/20 12:01:29;;;;;;;18.70;10.43;;;22.70;99.90;;;;;;5014230;28;20053;-56
2023/02/20 12:03:57;;;;;;;19.98;10.95;;;22.80;99.90;;;;;;5031991;28;20468;-56
2023/02/20 12:06:32;;;;;;;17.30;9.93;;;22.80;99.90;;;;;;5014250;28;20458;-57
2023/02/20 12:09:00;;;;;;;14.85;10.20;;;22.80;99.90;;;;;;5031871;28;20049;-56
2023/02/20 12:11:27;;;;;;;18.63;10.20;;;22.80;99.90;;;;;;5002746;28;20026;-55
2023/02/20 12:13:56;;;;;;;17.73;7.63;;;22.90;99.90;;;;;;5025343;28;20033;-57
2023/02/20 12:16:41;;;;;;;17.17;5.32;;;22.90;99.90;;;;;;5012244;28;20029;-57
2023/02/20 12:19:53;;;;;;;12.18;3.80;;;22.90;99.90;;;;;;5012030;28;20026;-58
2023/02/20 12:22:37;;;;;;;18.08;3.85;;;22.90;99.90;;;;;;5012499;28;20407;-59
2023/02/20 12:25:18;;;;;;;16.80;4.18;;;22.90;99.90;;;;;;5033715;28;20018;-58
2023/02/20 12:28:12;;;;;;;13.23;3.60;;;23.00;99.90;;;;;;5035648;28;20036;-61
2023/02/20 12:30:59;;;;;;;11.82;3.15;;;22.90;99.90;;;;;;5023713;28;20028;-60
2023/02/20 12:33:46;;;;;;;14.73;3.97;;;23.00;99.90;;;;;;5015935;28;20535;-59
2023/02/20 12:36:30;;;;;;;15.50;3.45;;;23.00;99.90;;;;;;5022063;28;20053;-63
2023/02/20 12:39:44;;;;;;;11.15;3.03;;;23.00;99.90;;;;;;5035592;28;20100;-58
2023/02/20 12:42:18;;;;;;;15.48;5.35;;;22.90;99.90;;;;;;5032616;28;20379;-57
2023/02/20 12:45:01;;;;;;;13.10;4.20;;;23.00;99.90;;;;;;5034841;28;20029;-60
2023/02/20 12:47:37;;;;;;;15.55;4.50;;;23.00;99.90;;;;;;5017421;28;20116;-58
2023/02/20 12:50:27;;;;;;;8.43;3.60;;;23.00;99.90;;;;;;5014792;28;20029;-56
2023/02/20 12:53:16;;;;;;;11.00;3.70;;;23.00;99.90;;;;;;5029442;28;20558;-55
2023/02/20 12:56:09;;;;;;;13.70;4.78;;;23.00;99.90;;;;;;5025154;28;20022;-54
2023/02/20 12:59:07;;;;;;;12.75;4.70;;;23.00;99.90;;;;;;5023822;28;20033;-54
2023/02/20 13:01:34;;;;;;;13.45;3.97;;;23.00;99.90;;;;;;5016257;28;20077;-54
2023/02/20 13:04:24;;;;;;;15.43;4.78;;;23.10;99.90;;;;;;5027256;28;20384;-54
2023/02/20 13:07:00;;;;;;;12.02;4.22;;;23.10;99.90;;;;;;5023066;28;20030;-56
2023/02/20 13:09:32;;;;;;;13.05;4.32;;;23.10;99.90;;;;;;5020383;28;20034;-55